createdAt,value
2018-12-25T00:00:06.110Z,68.32
2018-12-25T00:01:05.993Z,68.05
2018-12-25T00:02:05.979Z,67.91
2018-12-25T00:03:05.982Z,67.85
2018-12-25T00:04:05.961Z,68.15
2018-12-25T00:05:05.946Z,68.25
2018-12-25T00:06:06.051Z,68.25
2018-12-25T00:07:05.926Z,68.45
2018-12-25T00:08:05.915Z,68.25
2018-12-25T00:09:05.901Z,68.35
2018-12-25T00:10:05.890Z,68.35
2018-12-25T00:11:05.881Z,68.55
2018-12-25T00:12:05.972Z,69.35
2018-12-25T00:13:05.862Z,68.25
2018-12-25T00:14:06.227Z,68.25
2018-12-25T00:15:05.842Z,68.35
2018-12-25T00:16:05.830Z,68.05
2018-12-25T00:17:05.816Z,68.05
2018-12-25T00:18:06.065Z,68.05
2018-12-25T00:19:06.333Z,68.15
2018-12-25T00:20:05.782Z,68.05
2018-12-25T00:21:05.778Z,68.15
2018-12-25T00:22:05.764Z,68.15
2018-12-25T00:23:05.752Z,68.25
2018-12-25T00:24:05.827Z,68.15
2018-12-25T00:25:05.728Z,68.15
2018-12-25T00:26:05.718Z,68.05
2018-12-25T00:27:05.705Z,68.15
2018-12-25T00:28:05.695Z,68.25
2018-12-25T00:29:05.708Z,68.25
2018-12-25T00:30:05.766Z,68.15
2018-12-25T00:31:05.675Z,68.25
2018-12-25T00:32:05.655Z,68.25
2018-12-25T00:33:05.640Z,68.25
2018-12-25T00:34:05.634Z,67.85
2018-12-25T00:35:05.623Z,67.85
2018-12-25T00:36:05.861Z,67.65
2018-12-25T00:37:05.601Z,68.25
2018-12-25T00:38:05.592Z,67.94
2018-12-25T00:39:05.575Z,68.15
2018-12-25T00:40:05.567Z,68.15
2018-12-25T00:41:05.557Z,68.15
2018-12-25T00:42:05.890Z,67.94
2018-12-25T00:43:05.549Z,68.25
2018-12-25T00:44:05.536Z,68.05
2018-12-25T00:45:05.517Z,68.15
2018-12-25T00:46:05.503Z,68.25
2018-12-25T00:47:05.497Z,68.15
2018-12-25T00:48:05.570Z,68.25
2018-12-25T00:49:05.472Z,68.25
2018-12-25T00:50:05.459Z,67.85
2018-12-25T00:51:05.448Z,68.05
2018-12-25T00:52:05.437Z,68.05
2018-12-25T00:53:05.428Z,68.05
2018-12-25T00:54:05.668Z,68.05
2018-12-25T00:55:05.412Z,68.05
2018-12-25T00:56:05.395Z,68.05
2018-12-25T00:57:05.386Z,67.94
2018-12-25T00:58:05.385Z,68.25
2018-12-25T00:59:05.362Z,67.94
2018-12-25T01:00:05.450Z,68.15
2018-12-25T01:01:05.344Z,67.94
2018-12-25T01:02:05.335Z,67.94
2018-12-25T01:03:05.317Z,67.94
2018-12-25T01:04:05.308Z,68.15
2018-12-25T01:05:05.306Z,68.25
2018-12-25T01:06:05.476Z,68.18
2018-12-25T01:07:05.273Z,68.18
2018-12-25T01:08:05.260Z,67.88
2018-12-25T01:09:05.250Z,67.85
2018-12-25T01:10:05.246Z,68.15
2018-12-25T01:11:05.241Z,67.94
2018-12-25T01:12:05.327Z,67.94
2018-12-25T01:13:05.218Z,67.78
2018-12-25T01:14:05.203Z,68.05
2018-12-25T01:15:05.189Z,68.25
2018-12-25T01:16:05.178Z,68.15
2018-12-25T01:17:05.172Z,67.94
2018-12-25T01:18:05.259Z,68.15
2018-12-25T01:19:05.148Z,68.15
2018-12-25T01:20:05.141Z,68.08
2018-12-25T01:21:05.122Z,68.08
2018-12-25T01:22:05.112Z,68.08
2018-12-25T01:23:05.102Z,67.98
2018-12-25T01:24:05.242Z,67.98
2018-12-25T01:25:05.081Z,68.38
2018-12-25T01:26:05.069Z,68.38
2018-12-25T01:27:05.058Z,69.09
2018-12-25T01:28:05.047Z,69.18
2018-12-25T01:29:05.040Z,68.59
2018-12-25T01:30:05.114Z,68.68
2018-12-25T01:31:05.014Z,68.59
2018-12-25T01:32:05.002Z,69.18
2018-12-25T01:33:04.994Z,69.18
2018-12-25T01:34:04.985Z,69.29
2018-12-25T01:35:04.976Z,68.38
2018-12-25T01:36:05.052Z,68.38
2018-12-25T01:37:04.949Z,68.28
2018-12-25T01:38:04.938Z,68.51
2018-12-25T01:39:04.929Z,68.48
2018-12-25T01:40:04.923Z,68.59
2018-12-25T01:41:04.906Z,68.28
2018-12-25T01:42:04.990Z,68.59
2018-12-25T01:43:04.884Z,68.38
2018-12-25T01:44:04.889Z,68.68
2018-12-25T01:45:04.861Z,68.98
2018-12-25T01:46:04.850Z,69.18
2018-12-25T01:47:04.842Z,69.22
2018-12-25T01:48:04.910Z,69.12
2018-12-25T01:49:04.818Z,69.02
2018-12-25T01:50:04.808Z,69.02
2018-12-25T01:51:04.795Z,68.98
2018-12-25T01:52:04.788Z,69.02
2018-12-25T01:53:04.775Z,68.91
2018-12-25T01:54:04.931Z,69.02
2018-12-25T01:55:04.754Z,68.82
2018-12-25T01:56:04.749Z,69.12
2018-12-25T01:57:04.730Z,69.02
2018-12-25T01:58:04.719Z,69.02
2018-12-25T01:59:04.709Z,69.02
2018-12-25T02:00:04.947Z,68.91
2018-12-25T02:01:04.688Z,69.22
2018-12-25T02:02:04.679Z,69.22
2018-12-25T02:03:04.666Z,69.22
2018-12-25T02:04:04.654Z,69.22
2018-12-25T02:05:04.643Z,69.02
2018-12-25T02:06:04.729Z,68.51
2018-12-25T02:07:04.621Z,69.12
2018-12-25T02:08:04.613Z,69.22
2018-12-25T02:09:04.601Z,68.41
2018-12-25T02:10:04.593Z,68.62
2018-12-25T02:11:04.584Z,68.41
2018-12-25T02:12:04.666Z,68.31
2018-12-25T02:13:04.556Z,68.51
2018-12-25T02:14:04.546Z,68.51
2018-12-25T02:15:04.535Z,69.32
2018-12-25T02:16:04.525Z,69.32
2018-12-25T02:17:04.514Z,69.32
2018-12-25T02:18:04.647Z,69.32
2018-12-25T02:19:04.490Z,69.32
2018-12-25T02:20:04.485Z,68.41
2018-12-25T02:21:04.475Z,68.31
2018-12-25T02:22:04.459Z,68.21
2018-12-25T02:23:04.450Z,68.21
2018-12-25T02:24:04.630Z,68.01
2018-12-25T02:25:04.427Z,68.11
2018-12-25T02:26:04.416Z,68.31
2018-12-25T02:27:04.405Z,68.01
2018-12-25T02:28:04.394Z,68.21
2018-12-25T02:29:04.387Z,67.81
2018-12-25T02:30:04.486Z,67.78
2018-12-25T02:31:04.365Z,67.88
2018-12-25T02:32:04.368Z,67.81
2018-12-25T02:33:04.340Z,68.11
2018-12-25T02:34:04.329Z,67.91
2018-12-25T02:35:04.328Z,68.31
2018-12-25T02:36:04.404Z,68.01
2018-12-25T02:37:04.298Z,68.21
2018-12-25T02:38:04.288Z,68.01
2018-12-25T02:39:04.276Z,68.11
2018-12-25T02:40:04.267Z,68.01
2018-12-25T02:41:04.256Z,68.21
2018-12-25T02:42:04.401Z,68.21
2018-12-25T02:43:04.230Z,68.21
2018-12-25T02:44:04.222Z,68.21
2018-12-25T02:45:04.211Z,68.31
2018-12-25T02:46:04.205Z,68.31
2018-12-25T02:47:04.189Z,68.21
2018-12-25T02:48:04.272Z,68.11
2018-12-25T02:49:04.168Z,68.21
2018-12-25T02:50:04.156Z,68.01
2018-12-25T02:51:04.150Z,67.81
2018-12-25T02:52:04.141Z,68.01
2018-12-25T02:53:04.129Z,68.21
2018-12-25T02:54:04.270Z,68.01
2018-12-25T02:55:04.104Z,68.01
2018-12-25T02:56:04.094Z,68.31
2018-12-25T02:57:04.082Z,68.01
2018-12-25T02:58:04.074Z,68.31
2018-12-25T02:59:04.058Z,68.21
2018-12-25T03:00:05.023Z,68.21
2018-12-25T03:01:04.040Z,68.11
2018-12-25T03:02:04.046Z,68.15
2018-12-25T03:03:04.015Z,68.44
2018-12-25T03:04:04.012Z,68.15
2018-12-25T03:05:03.999Z,68.24
2018-12-25T03:06:04.068Z,68.35
2018-12-25T03:07:03.975Z,68.65
2018-12-25T03:08:03.963Z,69.35
2018-12-25T03:09:03.949Z,68.65
2018-12-25T03:10:03.944Z,68.65
2018-12-25T03:11:03.930Z,69.35
2018-12-25T03:12:04.074Z,69.45
2018-12-25T03:13:03.914Z,68.55
2018-12-25T03:14:03.897Z,68.35
2018-12-25T03:15:03.888Z,68.44
2018-12-25T03:16:03.879Z,68.04
2018-12-25T03:17:03.877Z,68.35
2018-12-25T03:18:04.007Z,68.24
2018-12-25T03:19:03.856Z,68.15
2018-12-25T03:20:03.837Z,68.35
2018-12-25T03:21:03.826Z,68.15
2018-12-25T03:22:03.832Z,68.35
2018-12-25T03:23:03.800Z,68.24
2018-12-25T03:24:03.890Z,68.24
2018-12-25T03:25:03.774Z,68.24
2018-12-25T03:26:03.771Z,68.24
2018-12-25T03:27:03.755Z,68.24
2018-12-25T03:28:03.741Z,68.15
2018-12-25T03:29:03.737Z,68.15
2018-12-25T03:30:04.020Z,68.15
2018-12-25T03:31:03.721Z,68.04
2018-12-25T03:32:03.706Z,68.44
2018-12-25T03:33:03.691Z,68.28
2018-12-25T03:34:03.677Z,68.15
2018-12-25T03:35:03.671Z,68.15
2018-12-25T03:36:03.743Z,68.44
2018-12-25T03:37:03.650Z,68.24
2018-12-25T03:38:03.653Z,68.15
2018-12-25T03:39:03.628Z,68.15
2018-12-25T03:40:03.614Z,68.44
2018-12-25T03:41:03.608Z,68.18
2018-12-25T03:42:03.691Z,68.24
2018-12-25T03:43:03.586Z,68.35
2018-12-25T03:44:03.579Z,68.24
2018-12-25T03:45:03.563Z,68.38
2018-12-25T03:46:03.553Z,68.28
2018-12-25T03:47:03.553Z,68.28
2018-12-25T03:48:03.726Z,68.24
2018-12-25T03:49:03.525Z,68.15
2018-12-25T03:50:10.433Z,68.18
2018-12-25T03:51:04.646Z,68.18
2018-12-25T03:52:03.500Z,68.08
2018-12-25T03:53:03.519Z,68.48
2018-12-25T03:54:03.597Z,68.38
2018-12-25T03:55:03.461Z,68.38
2018-12-25T03:56:03.512Z,68.08
2018-12-25T03:57:03.466Z,68.28
2018-12-25T03:58:04.084Z,68.28
2018-12-25T03:59:03.427Z,68.38
2018-12-25T04:00:03.519Z,68.38
2018-12-25T04:01:03.418Z,68.28
2018-12-25T04:02:03.404Z,68.28
2018-12-25T04:03:03.394Z,68.28
2018-12-25T04:04:03.414Z,68.38
2018-12-25T04:05:03.369Z,68.18
2018-12-25T04:06:03.513Z,68.38
2018-12-25T04:07:03.351Z,68.28
2018-12-25T04:08:03.323Z,68.28
2018-12-25T04:09:03.340Z,68.28
2018-12-25T04:10:03.325Z,67.88
2018-12-25T04:11:03.302Z,68.28
2018-12-25T04:12:03.928Z,68.08
2018-12-25T04:13:03.294Z,68.08
2018-12-25T04:14:03.284Z,68.01
2018-12-25T04:15:03.276Z,68.01
2018-12-25T04:16:03.933Z,67.88
2018-12-25T04:17:03.228Z,67.97
2018-12-25T04:18:03.339Z,67.97
2018-12-25T04:19:03.205Z,68.08
2018-12-25T04:20:03.190Z,67.91
2018-12-25T04:21:03.177Z,68.01
2018-12-25T04:22:03.168Z,68.21
2018-12-25T04:23:03.164Z,68.01
2018-12-25T04:24:03.353Z,68.01
2018-12-25T04:25:03.132Z,68.21
2018-12-25T04:26:03.127Z,68.21
2018-12-25T04:27:03.112Z,68.01
2018-12-25T04:28:03.203Z,68.01
2018-12-25T04:29:03.095Z,68.21
2018-12-25T04:30:03.165Z,68.01
2018-12-25T04:31:03.073Z,68.01
2018-12-25T04:32:03.087Z,67.91
2018-12-25T04:33:03.050Z,68.01
2018-12-25T04:34:03.040Z,67.91
2018-12-25T04:35:03.046Z,68.01
2018-12-25T04:36:03.118Z,68.01
2018-12-25T04:37:03.006Z,68.21
2018-12-25T04:38:02.997Z,67.91
2018-12-25T04:39:02.986Z,68.11
2018-12-25T04:40:02.976Z,68.11
2018-12-25T04:41:02.964Z,68.31
2018-12-25T04:42:03.097Z,68.01
2018-12-25T04:43:02.944Z,68.14
2018-12-25T04:44:02.933Z,67.91
2018-12-25T04:45:02.930Z,68.04
2018-12-25T04:46:02.910Z,68.34
2018-12-25T04:47:02.901Z,68.01
2018-12-25T04:48:03.242Z,68.04
2018-12-25T04:49:02.878Z,68.24
2018-12-25T04:50:02.881Z,68.04
2018-12-25T04:51:02.856Z,68.01
2018-12-25T04:52:02.849Z,68.04
2018-12-25T04:53:02.838Z,68.01
2018-12-25T04:54:02.938Z,68.24
2018-12-25T04:55:02.816Z,68.24
2018-12-25T04:56:02.802Z,67.71
2018-12-25T04:57:02.792Z,67.74
2018-12-25T04:58:02.786Z,67.91
2018-12-25T04:59:02.773Z,67.94
2018-12-25T05:00:02.964Z,67.84
2018-12-25T05:01:02.750Z,67.84
2018-12-25T05:02:02.743Z,67.80
2018-12-25T05:03:02.729Z,67.74
2018-12-25T05:04:02.717Z,67.74
2018-12-25T05:05:02.706Z,67.84
2018-12-25T05:06:02.946Z,67.94
2018-12-25T05:07:02.685Z,67.84
2018-12-25T05:08:02.685Z,67.84
2018-12-25T05:09:02.660Z,67.63
2018-12-25T05:10:02.654Z,67.74
2018-12-25T05:11:02.770Z,67.84
2018-12-25T05:12:02.716Z,67.84
2018-12-25T05:13:02.622Z,67.84
2018-12-25T05:14:02.611Z,68.04
2018-12-25T05:15:02.602Z,67.71
2018-12-25T05:16:02.699Z,67.74
2018-12-25T05:17:02.622Z,67.94
2018-12-25T05:18:02.681Z,67.74
2018-12-25T05:19:02.558Z,67.80
2018-12-25T05:20:02.546Z,67.40
2018-12-25T05:21:02.542Z,68.04
2018-12-25T05:22:02.530Z,67.60
2018-12-25T05:23:02.514Z,67.94
2018-12-25T05:24:02.701Z,67.63
2018-12-25T05:25:02.489Z,67.43
2018-12-25T05:26:02.477Z,67.43
2018-12-25T05:27:02.471Z,67.43
2018-12-25T05:28:02.458Z,67.74
2018-12-25T05:29:02.449Z,67.63
2018-12-25T05:30:02.534Z,67.54
2018-12-25T05:31:02.424Z,67.74
2018-12-25T05:32:02.417Z,67.74
2018-12-25T05:33:02.403Z,67.50
2018-12-25T05:34:02.395Z,67.63
2018-12-25T05:35:02.384Z,67.63
2018-12-25T05:36:02.474Z,67.63
2018-12-25T05:37:02.358Z,67.74
2018-12-25T05:38:02.347Z,67.94
2018-12-25T05:39:02.340Z,67.71
2018-12-25T05:40:02.329Z,67.94
2018-12-25T05:41:02.316Z,67.71
2018-12-25T05:42:02.452Z,67.23
2018-12-25T05:43:02.291Z,67.84
2018-12-25T05:44:02.289Z,67.43
2018-12-25T05:45:02.289Z,67.33
2018-12-25T05:46:02.264Z,67.33
2018-12-25T05:47:02.253Z,67.50
2018-12-25T05:48:02.361Z,67.43
2018-12-25T05:49:02.230Z,67.40
2018-12-25T05:50:02.220Z,67.43
2018-12-25T05:51:02.214Z,67.50
2018-12-25T05:52:02.200Z,67.50
2018-12-25T05:53:02.191Z,67.40
2018-12-25T05:54:02.550Z,67.50
2018-12-25T05:55:02.172Z,67.71
2018-12-25T05:56:02.159Z,67.10
2018-12-25T05:57:02.156Z,67.10
2018-12-25T05:58:02.136Z,67.00
2018-12-25T05:59:02.126Z,67.30
2018-12-25T06:00:02.194Z,67.20
2018-12-25T06:01:02.103Z,67.20
2018-12-25T06:02:02.093Z,67.20
2018-12-25T06:03:02.084Z,67.20
2018-12-25T06:04:02.071Z,67.20
2018-12-25T06:05:02.065Z,67.20
2018-12-25T06:06:02.130Z,67.20
2018-12-25T06:07:02.040Z,67.30
2018-12-25T06:08:02.031Z,67.20
2018-12-25T06:09:02.028Z,67.00
2018-12-25T06:10:02.008Z,67.30
2018-12-25T06:11:02.011Z,67.00
2018-12-25T06:12:02.140Z,67.10
2018-12-25T06:13:01.976Z,67.20
2018-12-25T06:14:01.966Z,66.97
2018-12-25T06:15:01.960Z,66.87
2018-12-25T06:16:01.944Z,66.97
2018-12-25T06:17:01.932Z,66.97
2018-12-25T06:18:02.026Z,67.07
2018-12-25T06:19:01.914Z,67.17
2018-12-25T06:20:01.902Z,66.97
2018-12-25T06:21:01.894Z,67.07
2018-12-25T06:22:01.879Z,67.17
2018-12-25T06:23:01.871Z,67.27
2018-12-25T06:24:01.971Z,67.14
2018-12-25T06:25:01.850Z,66.97
2018-12-25T06:26:01.844Z,67.37
2018-12-25T06:27:01.830Z,67.27
2018-12-25T06:28:01.817Z,66.53
2018-12-25T06:29:01.810Z,66.16
2018-12-25T06:30:01.949Z,67.24
2018-12-25T06:31:01.784Z,65.93
2018-12-25T06:32:01.776Z,65.83
2018-12-25T06:33:01.774Z,66.13
2018-12-25T06:34:01.784Z,66.53
2018-12-25T06:35:01.739Z,66.33
2018-12-25T06:36:02.147Z,66.83
2018-12-25T06:37:01.719Z,66.63
2018-12-25T06:38:01.723Z,66.63
2018-12-25T06:39:01.765Z,66.63
2018-12-25T06:40:01.698Z,66.43
2018-12-25T06:41:01.682Z,66.53
2018-12-25T06:42:01.965Z,66.94
2018-12-25T06:43:01.665Z,66.91
2018-12-25T06:44:01.649Z,66.71
2018-12-25T06:45:01.645Z,66.60
2018-12-25T06:46:01.626Z,66.50
2018-12-25T06:47:01.623Z,66.30
2018-12-25T06:48:01.854Z,66.20
2018-12-25T06:49:01.597Z,66.60
2018-12-25T06:50:01.579Z,66.40
2018-12-25T06:51:04.027Z,66.20
2018-12-25T06:52:01.563Z,66.40
2018-12-25T06:53:01.551Z,66.30
2018-12-25T06:54:01.647Z,66.37
2018-12-25T06:55:01.532Z,65.77
2018-12-25T06:56:01.518Z,65.67
2018-12-25T06:57:01.507Z,65.87
2018-12-25T06:58:01.500Z,65.77
2018-12-25T06:59:01.489Z,65.47
2018-12-25T07:00:01.554Z,65.36
2018-12-25T07:01:01.461Z,65.47
2018-12-25T07:02:01.452Z,65.26
2018-12-25T07:03:01.442Z,65.44
2018-12-25T07:04:01.456Z,64.93
2018-12-25T07:05:01.425Z,65.84
2018-12-25T07:06:01.540Z,64.83
2018-12-25T07:07:01.402Z,65.33
2018-12-25T07:08:01.387Z,65.44
2018-12-25T07:09:01.393Z,64.70
2018-12-25T07:10:01.369Z,65.00
2018-12-25T07:11:01.364Z,65.30
2018-12-25T07:12:01.636Z,64.40
2018-12-25T07:13:01.335Z,64.50
2018-12-25T07:14:01.322Z,64.50
2018-12-25T07:15:01.317Z,64.77
2018-12-25T07:16:01.306Z,64.47
2018-12-25T07:17:01.294Z,64.37
2018-12-25T07:18:01.465Z,64.77
2018-12-25T07:19:01.271Z,65.27
2018-12-25T07:20:01.295Z,65.57
2018-12-25T07:21:01.244Z,65.47
2018-12-25T07:22:01.236Z,65.17
2018-12-25T07:23:01.227Z,64.57
2018-12-25T07:24:01.320Z,64.74
2018-12-25T07:25:01.229Z,64.84
2018-12-25T07:26:01.200Z,65.24
2018-12-25T07:27:01.232Z,64.74
2018-12-25T07:28:01.172Z,65.04
2018-12-25T07:29:01.174Z,65.14
2018-12-25T07:30:01.391Z,64.40
2018-12-25T07:31:01.958Z,64.81
2018-12-25T07:32:01.258Z,65.11
2018-12-25T07:33:01.171Z,64.91
2018-12-25T07:34:01.198Z,64.21
2018-12-25T07:35:01.179Z,64.40
2018-12-25T07:36:01.335Z,64.88
2018-12-25T07:37:02.218Z,64.98
2018-12-25T07:38:01.091Z,63.98
2018-12-25T07:39:01.070Z,64.07
2018-12-25T07:40:01.052Z,64.58
2018-12-25T07:41:01.034Z,64.68
2018-12-25T07:42:01.146Z,63.98
2018-12-25T07:43:01.023Z,63.98
2018-12-25T07:44:01.069Z,64.18
2018-12-25T07:45:01.013Z,63.95
2018-12-25T07:46:01.062Z,64.04
2018-12-25T07:47:00.975Z,64.15
2018-12-25T07:48:01.143Z,64.04
2018-12-25T07:49:01.040Z,64.04
2018-12-25T07:50:01.047Z,64.34
2018-12-25T07:51:01.046Z,63.95
2018-12-25T07:52:01.001Z,64.15
2018-12-25T07:53:01.014Z,64.45
2018-12-25T07:54:01.201Z,63.95
2018-12-25T07:55:00.923Z,63.75
2018-12-25T07:56:00.906Z,63.81
2018-12-25T07:57:00.868Z,64.01
2018-12-25T07:58:00.889Z,63.92
2018-12-25T07:59:00.868Z,63.61
2018-12-25T08:00:00.930Z,63.61
2018-12-25T08:01:00.843Z,63.68
2018-12-25T08:02:00.819Z,63.48
2018-12-25T08:03:00.820Z,63.18
2018-12-25T08:04:00.794Z,63.39
2018-12-25T08:05:00.788Z,63.48
2018-12-25T08:06:00.932Z,63.39
2018-12-25T08:07:00.756Z,63.25
2018-12-25T08:08:00.743Z,63.28
2018-12-25T08:09:00.741Z,63.15
2018-12-25T08:10:00.725Z,63.25
2018-12-25T08:11:00.718Z,63.35
2018-12-25T08:12:02.003Z,62.82
2018-12-25T08:13:00.686Z,63.02
2018-12-25T08:14:00.689Z,62.82
2018-12-25T08:15:00.668Z,62.82
2018-12-25T08:16:00.657Z,62.92
2018-12-25T08:17:00.663Z,62.62
2018-12-25T08:18:00.776Z,62.52
2018-12-25T08:19:00.663Z,62.82
2018-12-25T08:20:00.648Z,62.42
2018-12-25T08:21:01.628Z,62.52
2018-12-25T08:22:00.590Z,62.49
2018-12-25T08:23:02.734Z,62.59
2018-12-25T08:24:00.756Z,62.37
2018-12-25T08:25:00.565Z,62.56
2018-12-25T08:26:00.600Z,62.37
2018-12-25T08:27:00.565Z,62.37
2018-12-25T08:28:00.567Z,61.93
2018-12-25T08:29:00.539Z,61.96
2018-12-25T08:30:00.718Z,62.26
2018-12-25T08:31:00.645Z,62.23
2018-12-25T08:32:00.521Z,61.93
2018-12-25T08:33:00.519Z,62.13
2018-12-25T08:34:00.526Z,61.90
2018-12-25T08:35:00.509Z,61.83
2018-12-25T08:36:00.720Z,61.73
2018-12-25T08:37:00.477Z,61.90
2018-12-25T08:38:00.441Z,61.90
2018-12-25T08:39:00.418Z,61.71
2018-12-25T08:40:00.421Z,61.71
2018-12-25T08:41:00.403Z,61.60
2018-12-25T08:42:00.689Z,61.60
2018-12-25T08:43:00.396Z,61.30
2018-12-25T08:44:00.386Z,61.60
2018-12-25T08:45:00.384Z,61.80
2018-12-25T08:46:01.042Z,61.71
2018-12-25T08:47:02.546Z,61.68
2018-12-25T08:48:02.097Z,61.57
2018-12-25T08:49:00.315Z,61.68
2018-12-25T08:50:00.310Z,61.68
2018-12-25T08:51:00.288Z,61.77
2018-12-25T08:52:00.270Z,61.68
2018-12-25T08:53:00.262Z,61.35
2018-12-25T08:54:01.056Z,61.57
2018-12-25T08:55:00.253Z,61.15
2018-12-25T08:56:00.233Z,61.15
2018-12-25T08:57:00.214Z,61.25
2018-12-25T08:58:00.239Z,61.15
2018-12-25T08:59:00.206Z,61.35
2018-12-25T09:00:00.299Z,61.15
2018-12-25T09:01:00.182Z,61.22
2018-12-25T09:02:00.171Z,61.11
2018-12-25T09:03:00.215Z,60.92
2018-12-25T09:04:00.237Z,60.92
2018-12-25T09:05:00.251Z,61.02
2018-12-25T09:06:00.478Z,61.11
2018-12-25T09:07:00.101Z,61.32
2018-12-25T09:08:00.102Z,61.22
2018-12-25T09:09:00.088Z,61.11
2018-12-25T09:10:00.156Z,61.02
2018-12-25T09:11:00.071Z,61.32
2018-12-25T09:12:00.306Z,61.32
2018-12-25T09:13:00.056Z,61.02
2018-12-25T09:14:00.035Z,61.22
2018-12-25T09:15:00.016Z,61.22
2018-12-25T09:16:00.013Z,61.22
2018-12-25T09:16:59.997Z,61.32
2018-12-25T09:18:00.086Z,61.11
2018-12-25T09:18:59.986Z,60.92
2018-12-25T09:19:59.965Z,60.89
2018-12-25T09:20:59.959Z,60.92
2018-12-25T09:21:59.944Z,60.82
2018-12-25T09:22:59.932Z,61.22
2018-12-25T09:24:00.033Z,61.09
2018-12-25T09:24:59.916Z,60.89
2018-12-25T09:25:59.909Z,60.89
2018-12-25T09:26:59.896Z,60.89
2018-12-25T09:27:59.891Z,60.99
2018-12-25T09:28:59.870Z,60.49
2018-12-25T09:30:00.248Z,60.39
2018-12-25T09:30:59.853Z,60.39
2018-12-25T09:31:59.841Z,60.39
2018-12-25T09:32:59.829Z,60.39
2018-12-25T09:33:59.811Z,60.49
2018-12-25T09:34:59.806Z,60.76
2018-12-25T09:35:59.890Z,60.36
2018-12-25T09:36:59.794Z,60.16
2018-12-25T09:37:59.782Z,60.26
2018-12-25T09:38:59.773Z,59.96
2018-12-25T09:39:59.752Z,60.06
2018-12-25T09:40:59.741Z,59.56
2018-12-25T09:41:59.844Z,59.96
2018-12-25T09:42:59.722Z,59.56
2018-12-25T09:43:59.713Z,59.77
2018-12-25T09:44:59.706Z,59.74
2018-12-25T09:45:59.681Z,59.64
2018-12-25T09:46:59.688Z,59.14
2018-12-25T09:47:59.969Z,59.21
2018-12-25T09:48:59.658Z,58.91
2018-12-25T09:49:59.651Z,59.21
2018-12-25T09:50:59.630Z,59.21
2018-12-25T09:51:59.649Z,58.91
2018-12-25T09:52:59.617Z,59.01
2018-12-25T09:53:59.967Z,58.91
2018-12-25T09:55:00.582Z,58.58
2018-12-25T09:55:59.599Z,58.31
2018-12-25T09:56:59.620Z,58.41
2018-12-25T09:57:59.552Z,58.51
2018-12-25T09:58:59.606Z,58.61
2018-12-25T10:00:09.608Z,58.61
2018-12-25T10:00:59.514Z,58.31
2018-12-25T10:01:59.508Z,58.31
2018-12-25T10:02:59.499Z,58.09
2018-12-25T10:03:59.482Z,58.28
2018-12-25T10:04:59.472Z,58.28
2018-12-25T10:05:59.592Z,57.56
2018-12-25T10:06:59.448Z,58.06
2018-12-25T10:07:59.439Z,57.64
2018-12-25T10:08:59.428Z,57.53
2018-12-25T10:09:59.418Z,56.84
2018-12-25T10:10:59.408Z,56.54
2018-12-25T10:11:59.663Z,56.64
2018-12-25T10:12:59.388Z,56.61
2018-12-25T10:14:00.372Z,56.71
2018-12-25T10:15:00.059Z,56.71
2018-12-25T10:15:59.354Z,56.21
2018-12-25T10:16:59.346Z,56.38
2018-12-25T10:17:59.610Z,56.19
2018-12-25T10:18:59.323Z,56.59
2018-12-25T10:19:59.336Z,56.06
2018-12-25T10:20:59.302Z,56.06
2018-12-25T10:22:03.034Z,56.26
2018-12-25T10:23:00.421Z,56.16
2018-12-25T10:23:59.269Z,55.87
2018-12-25T10:24:59.254Z,56.16
2018-12-25T10:25:59.247Z,56.16
2018-12-25T10:26:59.235Z,56.06
2018-12-25T10:27:59.221Z,55.66
2018-12-25T10:28:59.310Z,55.96
2018-12-25T10:29:59.203Z,55.76
2018-12-25T10:30:59.195Z,55.36
2018-12-25T10:31:59.178Z,55.87
2018-12-25T10:32:59.172Z,55.76
2018-12-25T10:33:59.156Z,56.04
2018-12-25T10:34:59.422Z,55.83
2018-12-25T10:35:59.138Z,55.83
2018-12-25T10:36:59.129Z,55.54
2018-12-25T10:37:59.123Z,55.41
2018-12-25T10:38:59.111Z,55.61
2018-12-25T10:39:59.100Z,55.71
2018-12-25T10:40:59.184Z,55.58
2018-12-25T10:41:59.078Z,55.32
2018-12-25T10:42:59.072Z,55.29
2018-12-25T10:43:59.560Z,54.39
2018-12-25T10:44:59.057Z,54.69
2018-12-25T10:45:59.030Z,54.60
2018-12-25T10:46:59.166Z,54.42
2018-12-25T10:47:59.021Z,55.21
2018-12-25T10:48:59.007Z,54.42
2018-12-25T10:49:58.986Z,54.62
2018-12-25T10:50:58.989Z,54.62
2018-12-25T10:51:58.981Z,54.92
2018-12-25T10:52:59.165Z,54.72
2018-12-25T10:54:08.399Z,54.82
2018-12-25T10:55:08.902Z,54.92
2018-12-25T10:56:07.678Z,54.69
2018-12-25T10:56:58.991Z,55.09
2018-12-25T10:57:58.910Z,55.21
2018-12-25T10:58:59.030Z,54.99
2018-12-25T10:59:58.883Z,54.72
2018-12-25T11:00:58.877Z,54.99
2018-12-25T11:01:58.864Z,54.60
2018-12-25T11:02:58.855Z,54.89
2018-12-25T11:03:58.841Z,54.67
2018-12-25T11:04:59.042Z,54.37
2018-12-25T11:05:58.823Z,54.37
2018-12-25T11:06:58.811Z,54.35
2018-12-25T11:07:58.798Z,54.74
2018-12-25T11:08:58.785Z,54.54
2018-12-25T11:09:58.772Z,54.44
2018-12-25T11:10:59.077Z,54.24
2018-12-25T11:11:58.757Z,54.44
2018-12-25T11:12:58.748Z,54.64
2018-12-25T11:13:58.738Z,54.54
2018-12-25T11:14:58.726Z,54.74
2018-12-25T11:15:58.711Z,54.44
2018-12-25T11:16:58.784Z,54.54
2018-12-25T11:17:58.711Z,54.64
2018-12-25T11:18:58.684Z,54.67
2018-12-25T11:19:58.674Z,54.67
2018-12-25T11:20:58.659Z,54.54
2018-12-25T11:21:58.648Z,54.64
2018-12-25T11:22:58.764Z,54.64
2018-12-25T11:23:58.626Z,54.24
2018-12-25T11:24:58.618Z,54.44
2018-12-25T11:25:58.605Z,54.24
2018-12-25T11:26:58.593Z,54.24
2018-12-25T11:27:58.585Z,54.54
2018-12-25T11:28:58.704Z,54.94
2018-12-25T11:29:58.563Z,54.86
2018-12-25T11:30:58.563Z,54.77
2018-12-25T11:31:58.547Z,54.96
2018-12-25T11:32:58.531Z,54.47
2018-12-25T11:33:58.520Z,55.06
2018-12-25T11:34:58.591Z,54.57
2018-12-25T11:35:58.500Z,54.86
2018-12-25T11:36:58.491Z,54.99
2018-12-25T11:37:58.476Z,54.99
2018-12-25T11:38:58.467Z,54.99
2018-12-25T11:39:58.467Z,55.02
2018-12-25T11:40:58.546Z,54.85
2018-12-25T11:41:58.437Z,54.55
2018-12-25T11:42:58.427Z,55.66
2018-12-25T11:43:58.413Z,55.57
2018-12-25T11:44:58.403Z,55.36
2018-12-25T11:45:58.391Z,55.66
2018-12-25T11:46:58.622Z,54.38
2018-12-25T11:47:58.378Z,55.27
2018-12-25T11:48:58.360Z,54.38
2018-12-25T11:49:58.350Z,55.27
2018-12-25T11:50:58.339Z,55.07
2018-12-25T11:51:58.328Z,54.47
2018-12-25T11:52:58.616Z,54.47
2018-12-25T11:53:58.306Z,54.97
2018-12-25T11:54:58.292Z,54.87
2018-12-25T11:55:58.285Z,55.07
2018-12-25T11:56:58.275Z,55.00
2018-12-25T11:57:58.264Z,54.90
2018-12-25T11:58:58.366Z,55.10
2018-12-25T11:59:58.246Z,54.97
2018-12-25T12:00:58.232Z,54.77
2018-12-25T12:01:58.219Z,55.07
2018-12-25T12:02:58.210Z,54.28
2018-12-25T12:03:58.199Z,54.77
2018-12-25T12:04:58.295Z,54.47
2018-12-25T12:05:58.177Z,54.47
2018-12-25T12:06:58.167Z,55.07
2018-12-25T12:07:58.156Z,55.10
2018-12-25T12:08:58.145Z,54.87
2018-12-25T12:09:58.141Z,54.97
2018-12-25T12:10:58.466Z,54.87
2018-12-25T12:11:58.114Z,55.17
2018-12-25T12:12:58.100Z,54.68
2018-12-25T12:13:58.095Z,54.85
2018-12-25T12:14:58.599Z,54.85
2018-12-25T12:15:58.075Z,54.25
2018-12-25T12:16:58.173Z,54.35
2018-12-25T12:17:58.046Z,54.55
2018-12-25T12:18:58.041Z,54.35
2018-12-25T12:19:58.028Z,54.22
2018-12-25T12:20:58.018Z,54.52
2018-12-25T12:21:58.008Z,54.49
2018-12-25T12:22:58.135Z,53.80
2018-12-25T12:23:57.983Z,53.70
2018-12-25T12:24:57.984Z,54.30
2018-12-25T12:25:57.965Z,53.01
2018-12-25T12:26:57.954Z,54.20
2018-12-25T12:27:57.946Z,53.78
2018-12-25T12:28:58.037Z,53.78
2018-12-25T12:29:57.921Z,53.88
2018-12-25T12:30:57.911Z,54.20
2018-12-25T12:31:57.897Z,54.27
2018-12-25T12:32:57.888Z,53.88
2018-12-25T12:33:57.879Z,54.37
2018-12-25T12:34:58.006Z,54.27
2018-12-25T12:35:57.858Z,54.14
2018-12-25T12:36:57.846Z,54.14
2018-12-25T12:37:57.833Z,54.14
2018-12-25T12:38:57.868Z,54.24
2018-12-25T12:39:57.817Z,54.35
2018-12-25T12:40:57.920Z,53.75
2018-12-25T12:41:57.790Z,54.44
2018-12-25T12:42:57.797Z,54.64
2018-12-25T12:43:57.772Z,54.74
2018-12-25T12:44:57.757Z,55.04
2018-12-25T12:45:57.763Z,54.74
2018-12-25T12:46:58.001Z,55.13
2018-12-25T12:47:57.727Z,54.84
2018-12-25T12:48:57.720Z,54.74
2018-12-25T12:49:57.713Z,54.64
2018-12-25T12:50:57.698Z,54.64
2018-12-25T12:51:57.687Z,55.53